createdAt,value
2022-10-13T00:00:00.179Z,9.6
2022-10-13T00:05:00.330Z,9.6
2022-10-13T00:10:00.763Z,9.6
2022-10-13T00:15:00.149Z,9.7
2022-10-13T00:20:00.461Z,9.7
2022-10-13T00:25:00.162Z,9.7
2022-10-13T00:30:00.463Z,9.7
2022-10-13T00:35:00.455Z,9.7
2022-10-13T00:40:00.446Z,9.8
2022-10-13T00:45:00.381Z,9.8
2022-10-13T00:50:00.421Z,9.8
2022-10-13T00:55:00.456Z,9.8
2022-10-13T01:00:00.427Z,9.8
2022-10-13T01:05:00.384Z,9.8
2022-10-13T01:10:00.436Z,9.8
2022-10-13T01:15:00.431Z,9.7
2022-10-13T01:20:00.494Z,9.7
2022-10-13T01:25:00.166Z,9.7
2022-10-13T01:30:00.431Z,9.7
2022-10-13T01:35:00.175Z,9.6
2022-10-13T01:40:00.446Z,9.6
2022-10-13T01:45:00.478Z,9.7
2022-10-13T01:50:00.396Z,9.6
2022-10-13T01:55:00.427Z,9.6
2022-10-13T02:00:00.428Z,9.6
2022-10-13T02:05:00.174Z,9.7
2022-10-13T02:10:00.121Z,9.7
2022-10-13T02:15:00.497Z,9.7
2022-10-13T02:20:00.560Z,9.7
2022-10-13T02:25:00.430Z,9.7
2022-10-13T02:30:00.455Z,9.7
2022-10-13T02:35:00.446Z,9.6
2022-10-13T02:40:00.489Z,9.6
2022-10-13T02:45:00.495Z,9.6
2022-10-13T02:50:00.456Z,9.6
2022-10-13T02:55:00.425Z,9.6
2022-10-13T03:00:00.426Z,9.6
2022-10-13T03:05:00.421Z,9.7
2022-10-13T03:10:00.459Z,9.7
2022-10-13T03:15:00.429Z,9.7
2022-10-13T03:20:00.462Z,9.7
2022-10-13T03:25:00.433Z,9.7
2022-10-13T03:30:00.447Z,9.6
2022-10-13T03:35:00.169Z,9.6
2022-10-13T03:40:00.477Z,9.6
2022-10-13T03:45:00.457Z,9.6
2022-10-13T03:50:00.458Z,9.6
2022-10-13T03:55:00.422Z,9.6
2022-10-13T04:00:00.452Z,9.6
2022-10-13T04:05:00.399Z,9.6
2022-10-13T04:10:00.389Z,9.6
2022-10-13T04:15:00.387Z,9.6
2022-10-13T04:20:00.408Z,9.6
2022-10-13T04:25:00.418Z,9.6
2022-10-13T04:30:00.420Z,9.6
2022-10-13T04:35:00.406Z,9.6
2022-10-13T04:40:00.491Z,9.6
2022-10-13T04:45:00.479Z,9.6
2022-10-13T04:50:00.445Z,9.6
2022-10-13T04:55:00.368Z,9.5
2022-10-13T05:00:00.449Z,9.5
2022-10-13T05:05:00.404Z,9.5
2022-10-13T05:10:00.485Z,9.5
2022-10-13T05:15:00.532Z,9.5
2022-10-13T05:20:00.473Z,9.5
2022-10-13T05:25:00.462Z,9.5
2022-10-13T05:30:00.428Z,9.4
2022-10-13T05:35:00.407Z,9.4
2022-10-13T05:40:00.414Z,9.4
2022-10-13T05:45:00.432Z,9.4
2022-10-13T05:50:00.467Z,9.4
2022-10-13T05:55:00.451Z,9.4
2022-10-13T06:00:00.423Z,9.4
2022-10-13T06:05:00.420Z,9.4
2022-10-13T06:10:00.455Z,9.4
2022-10-13T06:15:00.469Z,9.4
2022-10-13T06:20:00.459Z,9.5
2022-10-13T06:25:00.432Z,9.5
2022-10-13T06:30:00.405Z,9.5
2022-10-13T06:35:00.395Z,9.6
2022-10-13T06:40:00.469Z,9.5
2022-10-13T06:45:00.430Z,9.6
2022-10-13T06:50:00.518Z,9.7
2022-10-13T06:55:00.522Z,9.7
2022-10-13T07:00:00.532Z,9.6
2022-10-13T07:05:00.425Z,9.7
2022-10-13T07:10:00.396Z,9.7
2022-10-13T07:15:00.493Z,9.9
2022-10-13T07:20:03.647Z,9.9
2022-10-13T07:25:00.425Z,9.9
2022-10-13T07:30:00.442Z,10
2022-10-13T07:35:00.473Z,10
2022-10-13T07:40:00.446Z,10
2022-10-13T07:45:00.437Z,10
2022-10-13T07:50:00.223Z,10.1
2022-10-13T07:55:00.465Z,10
2022-10-13T08:00:00.416Z,10
2022-10-13T08:05:00.483Z,10.2
2022-10-13T08:10:00.445Z,10.1
2022-10-13T08:15:01.844Z,10
2022-10-13T08:20:00.484Z,10.1
2022-10-13T08:25:00.440Z,10
2022-10-13T08:30:00.449Z,10.1
2022-10-13T08:35:00.422Z,10.2
2022-10-13T08:40:00.433Z,10.3
2022-10-13T08:45:40.673Z,10.2
2022-10-13T08:50:01.039Z,10.2
2022-10-13T08:55:00.402Z,10.4
2022-10-13T09:00:00.451Z,10.3
2022-10-13T09:05:00.479Z,10.3
2022-10-13T09:10:00.454Z,10.5
2022-10-13T09:15:00.481Z,10.4
2022-10-13T09:20:00.424Z,10.3
2022-10-13T09:25:00.454Z,10.3
2022-10-13T09:30:00.459Z,10.2
2022-10-13T09:35:00.414Z,10.3
2022-10-13T09:40:00.446Z,10.2
2022-10-13T09:45:00.483Z,10.2
2022-10-13T09:50:04.709Z,10.2
2022-10-13T09:55:00.435Z,10.3
2022-10-13T10:05:00.424Z,10.3
2022-10-13T10:10:00.553Z,10.4
2022-10-13T10:15:00.455Z,10.5
2022-10-13T10:20:00.397Z,10.6
2022-10-13T10:25:00.419Z,10.5
2022-10-13T10:30:00.400Z,10.5
2022-10-13T10:35:00.415Z,10.4
2022-10-13T10:40:00.451Z,10.5
2022-10-13T10:45:00.386Z,10.6
2022-10-13T10:50:00.436Z,10.5
2022-10-13T11:00:00.423Z,10.4
2022-10-13T11:05:03.512Z,10.5
2022-10-13T11:10:00.396Z,10.5
2022-10-13T11:15:00.201Z,10.4
2022-10-13T11:20:00.124Z,10.4
2022-10-13T11:25:00.453Z,10.4
2022-10-13T11:30:00.465Z,10.4
2022-10-13T11:35:00.502Z,10.4
2022-10-13T11:40:00.390Z,10.4
2022-10-13T11:45:00.427Z,10.3
2022-10-13T11:50:00.528Z,10.3
2022-10-13T11:55:00.447Z,10.3
2022-10-13T12:00:00.428Z,10.2
2022-10-13T12:05:00.472Z,10.3
2022-10-13T12:10:00.471Z,10.4
2022-10-13T12:15:02.531Z,10.5
2022-10-13T12:20:00.471Z,10.5
2022-10-13T12:25:00.457Z,10.5
2022-10-13T12:30:00.477Z,10.4
2022-10-13T12:35:00.475Z,10.4
2022-10-13T12:40:00.418Z,10.5
2022-10-13T12:45:00.442Z,10.5
2022-10-13T12:50:00.431Z,10.3
2022-10-13T12:55:00.474Z,10.5
2022-10-13T13:00:00.462Z,10.4
2022-10-13T13:05:00.410Z,10.4
2022-10-13T13:10:00.413Z,10.3
2022-10-13T13:15:00.426Z,10.3
2022-10-13T13:20:00.423Z,10.4
2022-10-13T13:25:01.311Z,10.4
2022-10-13T13:30:00.449Z,10.4
2022-10-13T13:35:00.522Z,10.4
2022-10-13T13:40:00.445Z,10.4
2022-10-13T13:45:00.459Z,10.3
2022-10-13T13:50:00.379Z,10.3
2022-10-13T13:55:00.456Z,10.4
2022-10-13T14:00:00.388Z,10.4
2022-10-13T14:05:00.424Z,10.4
2022-10-13T14:10:01.775Z,10.3
2022-10-13T14:15:00.474Z,10.5
2022-10-13T14:20:00.441Z,10.4
2022-10-13T14:25:00.394Z,10.5
2022-10-13T14:30:00.436Z,10.6
2022-10-13T14:40:00.434Z,10.3
2022-10-13T14:45:00.429Z,10.3
2022-10-13T14:50:00.498Z,10.5
2022-10-13T14:55:00.498Z,10.6
2022-10-13T15:00:01.993Z,10.5
2022-10-13T15:05:00.418Z,10.8
2022-10-13T15:10:05.754Z,10.9
2022-10-13T15:15:00.445Z,10.8
2022-10-13T15:20:00.443Z,11
2022-10-13T15:25:00.417Z,11
2022-10-13T15:30:00.419Z,11
2022-10-13T15:35:00.435Z,11
2022-10-13T15:40:00.448Z,11
2022-10-13T15:45:11.289Z,11
2022-10-13T15:50:00.409Z,11
2022-10-13T15:55:00.402Z,11
2022-10-13T16:00:00.516Z,10.9
2022-10-13T16:05:00.422Z,11
2022-10-13T16:10:00.390Z,11
2022-10-13T16:15:00.412Z,11
2022-10-13T16:20:00.462Z,11
2022-10-13T16:25:00.426Z,10.9
2022-10-13T16:30:00.467Z,10.7
2022-10-13T16:35:00.516Z,10.6
2022-10-13T16:40:00.428Z,10.8
2022-10-13T16:45:00.462Z,10.8
2022-10-13T16:50:00.427Z,10.8
2022-10-13T16:55:00.415Z,10.8
2022-10-13T17:00:00.416Z,10.7
2022-10-13T17:05:00.490Z,10.8
2022-10-13T17:10:00.388Z,10.6
2022-10-13T17:15:00.477Z,10.8
2022-10-13T17:20:00.457Z,10.7
2022-10-13T17:25:00.396Z,10.6
2022-10-13T17:30:00.401Z,10.7
2022-10-13T17:35:00.407Z,10.7
2022-10-13T17:40:00.450Z,10.7
2022-10-13T17:45:00.477Z,10.7
2022-10-13T17:50:00.413Z,10.6
2022-10-13T17:55:00.395Z,10.6
2022-10-13T18:00:00.371Z,10.6
2022-10-13T18:05:00.419Z,10.5
2022-10-13T18:10:00.436Z,10.5
2022-10-13T18:15:00.377Z,10.6
2022-10-13T18:20:00.418Z,10.5
2022-10-13T18:25:00.432Z,10.7
2022-10-13T18:30:00.412Z,10.6
2022-10-13T18:35:00.333Z,10.5
2022-10-13T18:40:00.445Z,10.5
2022-10-13T18:45:00.409Z,10.5
2022-10-13T18:50:00.444Z,10.5
2022-10-13T18:55:00.412Z,10.6
2022-10-13T19:00:00.396Z,10.5
2022-10-13T19:05:00.383Z,10.6
2022-10-13T19:10:00.441Z,10.6
2022-10-13T19:15:00.173Z,10.5
2022-10-13T19:20:00.378Z,10.5
2022-10-13T19:25:00.427Z,10.5
2022-10-13T19:30:00.454Z,10.4
2022-10-13T19:35:00.393Z,10.4
2022-10-13T19:40:00.393Z,10.3
2022-10-13T19:45:00.430Z,10.3
2022-10-13T19:50:00.445Z,10.3
2022-10-13T19:55:00.447Z,10.2
2022-10-13T20:00:00.424Z,10.2
2022-10-13T20:05:00.428Z,10.2
2022-10-13T20:10:00.456Z,10.2
2022-10-13T20:15:00.400Z,10.3
2022-10-13T20:20:00.455Z,10.3
2022-10-13T20:25:00.550Z,10.3
2022-10-13T20:30:00.454Z,10.4
2022-10-13T20:35:00.507Z,10.4
2022-10-13T20:40:00.474Z,10.4
2022-10-13T20:45:00.543Z,10.4
2022-10-13T20:50:00.455Z,10.4
2022-10-13T20:55:00.472Z,10.3
2022-10-13T21:00:00.487Z,10.3
2022-10-13T21:05:00.418Z,10.3
2022-10-13T21:10:00.501Z,10.2
2022-10-13T21:15:00.177Z,10.2
2022-10-13T21:20:00.461Z,10.2
2022-10-13T21:25:00.448Z,10.2
2022-10-13T21:30:00.498Z,10.2
2022-10-13T21:35:00.242Z,10.2
2022-10-13T21:40:00.459Z,10.3
2022-10-13T21:45:00.425Z,10.3
2022-10-13T21:50:00.414Z,10.2
2022-10-13T21:55:00.438Z,10.2
2022-10-13T22:00:00.491Z,10.2
2022-10-13T22:05:00.409Z,10.3
2022-10-13T22:10:00.349Z,10.2
2022-10-13T22:15:00.427Z,10.2
2022-10-13T22:20:00.480Z,10.2
2022-10-13T22:25:00.437Z,10.2
2022-10-13T22:30:00.409Z,10.2
2022-10-13T22:35:00.411Z,10.2
2022-10-13T22:40:00.506Z,10.2
2022-10-13T22:45:00.173Z,10.1
2022-10-13T22:50:00.125Z,10
2022-10-13T22:55:00.412Z,10
2022-10-13T23:00:00.447Z,10
2022-10-13T23:05:00.364Z,10.1
2022-10-13T23:10:00.384Z,10
2022-10-13T23:15:00.409Z,10
2022-10-13T23:20:00.398Z,10
2022-10-13T23:25:00.443Z,10
2022-10-13T23:30:00.371Z,9.9
2022-10-13T23:35:00.393Z,9.9
2022-10-13T23:40:00.480Z,9.9
2022-10-13T23:45:00.409Z,9.9
2022-10-13T23:50:00.398Z,9.9
2022-10-13T23:55:00.400Z,9.9
